Time;durP1;ratioP1;P1;durP2;ratioP2;P2;SDS_P1;SDS_P2;PMS_P1;PMS_P2;Temp;Humidity;BMP_temperature;BMP_pressure;BME280_temperature;BME280_humidity;BME280_pressure;Samples;Min_cycle;Max_cycle;Signal;HPM_P1;HPM_P2
2023/09/18 00:00:22;;;;;;;1999.90;999.90;;;15.30;99.90;;;;;;4980099;28;20050;-66
2023/09/18 00:02:48;;;;;;;1999.90;999.90;;;15.30;99.90;;;;;;4985050;28;20070;-66
2023/09/18 00:05:15;;;;;;;1999.90;999.90;;;15.30;99.90;;;;;;4980454;28;20272;-66
2023/09/18 00:07:44;;;;;;;1999.90;999.90;;;15.40;99.90;;;;;;4984174;28;20058;-66
2023/09/18 00:10:13;;;;;;;1999.90;999.90;;;15.40;99.90;;;;;;4978659;28;20056;-66
2023/09/18 00:12:40;;;;;;;1999.90;999.90;;;15.40;99.90;;;;;;4959284;28;20056;-66
2023/09/18 00:15:08;;;;;;;1999.90;999.90;;;15.40;99.90;;;;;;4983890;28;20383;-66
2023/09/18 00:17:34;;;;;;;1999.90;999.90;;;15.30;99.90;;;;;;4962442;28;20054;-67
2023/09/18 00:20:00;;;;;;;1999.90;999.90;;;15.30;99.90;;;;;;4978176;28;20508;-66
2023/09/18 00:22:26;;;;;;;1999.90;999.90;;;15.30;99.90;;;;;;5017808;28;20038;-66
2023/09/18 00:24:51;;;;;;;1999.90;999.90;;;15.20;99.90;;;;;;5000388;28;20096;-66
2023/09/18 00:27:17;;;;;;;1999.90;999.90;;;15.10;99.90;;;;;;4977023;28;20039;-66
2023/09/18 00:29:43;;;;;;;1999.90;999.90;;;15.10;99.90;;;;;;5008658;28;20045;-66
2023/09/18 00:32:08;;;;;;;1999.90;999.90;;;15.00;99.90;;;;;;5018018;28;20085;-66
2023/09/18 00:34:34;;;;;;;1999.90;999.90;;;15.00;99.90;;;;;;4984886;28;20177;-66
2023/09/18 00:37:00;;;;;;;1999.90;999.90;;;15.00;99.90;;;;;;4978348;28;20046;-66
2023/09/18 00:39:26;;;;;;;1999.90;999.90;;;15.00;99.90;;;;;;4963836;28;20038;-66
2023/09/18 00:41:53;;;;;;;1999.90;999.90;;;15.00;99.90;;;;;;4981971;28;20457;-66
2023/09/18 00:44:23;;;;;;;1999.90;999.90;;;15.10;99.90;;;;;;4984899;28;20052;-66
2023/09/18 00:46:49;;;;;;;1999.90;999.90;;;15.10;99.90;;;;;;4984790;28;20444;-66
2023/09/18 00:49:20;;;;;;;1999.90;999.90;;;15.20;99.90;;;;;;5015594;28;20107;-66
2023/09/18 00:51:47;;;;;;;1999.90;999.90;;;15.20;99.90;;;;;;4978608;28;20126;-66
2023/09/18 00:54:14;;;;;;;1999.90;999.90;;;15.30;99.90;;;;;;4974868;28;20038;-66
2023/09/18 00:56:40;;;;;;;1999.90;999.90;;;15.30;99.90;;;;;;4983685;28;20051;-66
2023/09/18 00:59:06;;;;;;;1999.90;999.90;;;15.30;99.90;;;;;;4976711;28;20058;-66
2023/09/18 01:01:32;;;;;;;1999.90;999.90;;;15.30;99.90;;;;;;4974437;28;20133;-67
2023/09/18 01:03:58;;;;;;;1999.90;999.90;;;15.30;99.90;;;;;;4982974;28;20113;-66
2023/09/18 01:06:30;;;;;;;1999.90;999.90;;;15.30;99.90;;;;;;4984900;28;20096;-66
2023/09/18 01:08:56;;;;;;;1999.90;999.90;;;15.20;99.90;;;;;;4984852;28;20505;-66
2023/09/18 01:12:09;;;;;;;1999.90;999.90;;;15.20;99.90;;;;;;4983257;28;20096;-66
2023/09/18 01:14:55;;;;;;;1999.90;999.90;;;15.30;99.90;;;;;;4986363;28;20062;-67
2023/09/18 01:17:21;;;;;;;1999.90;999.90;;;15.30;99.90;;;;;;5012825;28;20053;-66
2023/09/18 01:19:47;;;;;;;1999.90;999.90;;;15.20;99.90;;;;;;4980112;28;20047;-66
2023/09/18 01:22:15;;;;;;;1999.90;999.90;;;15.30;99.90;;;;;;5011156;28;20081;-66
2023/09/18 01:24:41;;;;;;;1999.90;999.90;;;15.30;99.90;;;;;;4985212;28;20070;-66
2023/09/18 01:27:16;;;;;;;1999.90;999.90;;;15.40;99.90;;;;;;4985545;28;20083;-66
2023/09/18 01:29:42;;;;;;;1999.90;999.90;;;15.30;99.90;;;;;;4978806;28;20046;-66
2023/09/18 01:32:08;;;;;;;1999.90;999.90;;;15.40;99.90;;;;;;4978286;28;20092;-67
2023/09/18 01:34:39;;;;;;;1999.90;999.90;;;15.40;99.90;;;;;;4985311;28;20038;-66
2023/09/18 01:37:05;;;;;;;1999.90;999.90;;;15.40;99.90;;;;;;4982172;28;20038;-66
2023/09/18 01:39:34;;;;;;;1999.90;999.90;;;15.50;99.90;;;;;;4981677;28;20111;-66
2023/09/18 01:42:05;;;;;;;1999.90;999.90;;;15.50;99.90;;;;;;4982537;28;20042;-66
2023/09/18 01:44:31;;;;;;;1999.90;999.90;;;15.50;99.90;;;;;;4962660;28;20150;-67
2023/09/18 01:47:02;;;;;;;1999.90;999.90;;;15.50;99.90;;;;;;4985322;28;20122;-66
2023/09/18 01:49:39;;;;;;;1999.90;999.90;;;15.60;99.90;;;;;;4987965;28;20061;-66
2023/09/18 01:52:06;;;;;;;1999.90;999.90;;;15.60;99.90;;;;;;4985752;28;20042;-67
2023/09/18 01:54:33;;;;;;;1999.90;999.90;;;15.60;99.90;;;;;;4974348;28;20042;-66
2023/09/18 01:56:59;;;;;;;1999.90;999.90;;;15.60;99.90;;;;;;4969029;28;20100;-66
2023/09/18 01:59:25;;;;;;;1999.90;999.90;;;15.60;99.90;;;;;;4976712;28;20494;-66
2023/09/18 02:01:53;;;;;;;1999.90;999.90;;;15.60;99.90;;;;;;4989120;28;20047;-67
2023/09/18 02:04:19;;;;;;;1999.90;999.90;;;15.70;99.90;;;;;;4979490;28;20034;-66
2023/09/18 02:06:47;;;;;;;1999.90;999.90;;;15.80;99.90;;;;;;4977324;28;20046;-67
2023/09/18 02:09:12;;;;;;;1999.90;999.90;;;15.90;99.90;;;;;;4980590;28;20077;-66
2023/09/18 02:11:43;;;;;;;1999.90;999.90;;;16.00;99.90;;;;;;4975041;28;20502;-67
2023/09/18 02:14:09;;;;;;;1999.90;999.90;;;16.00;99.90;;;;;;4980637;28;20126;-67
2023/09/18 02:16:37;;;;;;;1999.90;999.90;;;16.10;99.90;;;;;;4976215;28;20116;-66
2023/09/18 02:19:04;;;;;;;1999.90;999.90;;;16.10;99.90;;;;;;4974283;28;20117;-67
2023/09/18 02:21:30;;;;;;;1999.90;999.90;;;16.20;99.90;;;;;;4954783;28;20076;-67
2023/09/18 02:23:56;;;;;;;1999.90;999.90;;;16.20;99.90;;;;;;4975626;28;20047;-67
2023/09/18 02:26:24;;;;;;;1999.90;999.90;;;16.30;99.90;;;;;;5043943;27;20060;-67
2023/09/18 02:28:51;;;;;;;1999.90;999.90;;;16.30;99.90;;;;;;4984447;28;20099;-66
2023/09/18 02:31:16;;;;;;;1999.90;999.90;;;16.40;99.90;;;;;;4986896;28;20086;-67
2023/09/18 02:33:43;;;;;;;1999.90;999.90;;;16.40;99.90;;;;;;4982085;28;20101;-67
2023/09/18 02:36:08;;;;;;;1999.90;999.90;;;16.50;99.90;;;;;;4975229;28;20144;-67
2023/09/18 02:38:34;;;;;;;1999.90;999.90;;;16.40;99.90;;;;;;4987198;28;20076;-67
2023/09/18 02:41:00;;;;;;;1999.90;999.90;;;16.40;99.90;;;;;;4985598;28;20065;-67
2023/09/18 02:43:26;;;;;;;1999.90;999.90;;;16.40;99.90;;;;;;4973876;28;20154;-67
2023/09/18 02:45:52;;;;;;;1999.90;999.90;;;16.40;99.90;;;;;;4975229;28;20100;-67
2023/09/18 02:48:18;;;;;;;1999.90;999.90;;;16.40;99.90;;;;;;5012355;28;20045;-67
2023/09/18 02:50:44;;;;;;;1999.90;999.90;;;16.40;99.90;;;;;;4984802;28;20133;-67
2023/09/18 02:53:21;;;;;;;1999.90;999.90;;;16.50;99.90;;;;;;4970482;28;20038;-67
2023/09/18 02:55:48;;;;;;;1999.90;999.90;;;16.50;99.90;;;;;;4982252;28;20046;-67
2023/09/18 02:58:14;;;;;;;1999.90;999.90;;;16.50;99.90;;;;;;4976285;28;20437;-67
2023/09/18 03:00:44;;;;;;;1999.90;999.90;;;16.50;99.90;;;;;;5011282;28;20051;-67
2023/09/18 03:03:10;;;;;;;1999.90;999.90;;;16.60;99.90;;;;;;4978475;28;20484;-66
2023/09/18 03:05:36;;;;;;;1999.90;999.90;;;16.60;99.90;;;;;;4981508;28;20034;-67
2023/09/18 03:08:02;;;;;;;1999.90;999.90;;;16.60;99.90;;;;;;4980962;28;20121;-67
2023/09/18 03:10:27;;;;;;;1999.90;999.90;;;16.60;99.90;;;;;;4982584;28;20601;-67
2023/09/18 03:12:53;;;;;;;1999.90;999.90;;;16.60;99.90;;;;;;4968706;28;20057;-67
2023/09/18 03:15:19;;;;;;;1999.90;999.90;;;16.60;99.90;;;;;;5010959;28;20046;-67
2023/09/18 03:17:44;;;;;;;1999.90;999.90;;;16.60;99.90;;;;;;4985608;28;20058;-67
2023/09/18 03:20:11;;;;;;;1999.90;999.90;;;16.60;99.90;;;;;;5003884;28;20522;-67
2023/09/18 03:22:36;;;;;;;1999.90;999.90;;;16.70;99.90;;;;;;4984453;28;20125;-67
2023/09/18 03:25:02;;;;;;;1999.90;999.90;;;16.70;99.90;;;;;;5009200;28;20050;-67
2023/09/18 03:27:28;;;;;;;1999.90;999.90;;;16.70;99.90;;;;;;4980747;28;20042;-67
2023/09/18 03:29:55;;;;;;;1999.90;999.90;;;16.70;99.90;;;;;;4986265;28;20043;-67
2023/09/18 03:32:21;;;;;;;1999.90;999.90;;;16.80;99.90;;;;;;4985571;28;20030;-67
2023/09/18 03:34:46;;;;;;;1999.90;999.90;;;16.70;99.90;;;;;;5004132;28;20045;-67
2023/09/18 03:37:12;;;;;;;1999.90;999.90;;;16.70;99.90;;;;;;4981493;28;20038;-67
2023/09/18 03:39:38;;;;;;;1999.90;999.90;;;16.70;99.90;;;;;;4985890;28;20046;-67
2023/09/18 03:42:03;;;;;;;1999.90;999.90;;;16.80;99.90;;;;;;4980884;28;20513;-67
2023/09/18 03:44:29;;;;;;;1999.90;999.90;;;16.70;99.90;;;;;;4986975;28;20046;-67
2023/09/18 03:46:55;;;;;;;1999.90;999.90;;;16.70;99.90;;;;;;4987437;28;20056;-67
2023/09/18 03:49:20;;;;;;;1999.90;999.90;;;16.80;99.90;;;;;;5008275;28;20037;-67
2023/09/18 03:51:46;;;;;;;1999.90;999.90;;;16.80;99.90;;;;;;4986663;28;20042;-67
2023/09/18 03:54:11;;;;;;;1999.90;999.90;;;16.80;99.90;;;;;;4980826;28;20047;-67
2023/09/18 03:56:37;;;;;;;1999.90;999.90;;;16.90;99.90;;;;;;4982173;28;20070;-67
2023/09/18 03:59:04;;;;;;;1999.90;999.90;;;16.80;99.90;;;;;;4981654;28;20458;-67
2023/09/18 04:01:30;;;;;;;1999.90;999.90;;;16.90;99.90;;;;;;4981746;28;20053;-67
2023/09/18 04:03:56;;;;;;;1999.90;999.90;;;16.90;99.90;;;;;;4978567;28;20046;-67
2023/09/18 04:06:24;;;;;;;1999.90;999.90;;;16.90;99.90;;;;;;4980941;28;20547;-67
2023/09/18 04:08:50;;;;;;;1999.90;999.90;;;16.90;99.90;;;;;;4983180;28;20087;-67
2023/09/18 04:11:17;;;;;;;1999.90;999.90;;;16.90;99.90;;;;;;4986128;28;20133;-69
2023/09/18 04:13:42;;;;;;;1999.90;999.90;;;16.90;99.90;;;;;;4983836;28;20099;-67
2023/09/18 04:16:08;;;;;;;1999.90;999.90;;;16.90;99.90;;;;;;4981771;28;20043;-68
2023/09/18 04:18:33;;;;;;;1999.90;999.90;;;16.90;99.90;;;;;;4974388;28;20047;-68
2023/09/18 04:20:59;;;;;;;1999.90;999.90;;;16.90;99.90;;;;;;4986656;28;20038;-67
2023/09/18 04:23:26;;;;;;;1999.90;999.90;;;16.90;99.90;;;;;;5006739;28;20453;-67
2023/09/18 04:25:54;;;;;;;1999.90;999.90;;;16.90;99.90;;;;;;4980063;28;20121;-67
2023/09/18 04:28:22;;;;;;;1999.90;999.90;;;16.90;99.90;;;;;;4982489;28;20166;-68
2023/09/18 04:30:48;;;;;;;1999.90;999.90;;;16.90;99.90;;;;;;4982774;28;20043;-68
2023/09/18 04:33:14;;;;;;;1999.90;999.90;;;16.90;99.90;;;;;;4973889;28;20057;-68
2023/09/18 04:35:40;;;;;;;1999.90;999.90;;;16.90;99.90;;;;;;4977482;28;20043;-67
2023/09/18 04:38:08;;;;;;;1999.90;999.90;;;16.90;99.90;;;;;;4986444;28;20205;-68
2023/09/18 04:40:34;;;;;;;1999.90;999.90;;;16.90;99.90;;;;;;4985709;28;20058;-67
2023/09/18 04:43:01;;;;;;;1999.90;999.90;;;16.90;99.90;;;;;;4966903;28;20034;-67
2023/09/18 04:45:26;;;;;;;1999.90;999.90;;;17.00;99.90;;;;;;4999831;28;20108;-67
2023/09/18 04:47:53;;;;;;;1999.90;999.90;;;17.00;99.90;;;;;;5010969;28;20042;-68
2023/09/18 04:50:19;;;;;;;1999.90;999.90;;;17.00;99.90;;;;;;4981962;28;20054;-67
2023/09/18 04:52:45;;;;;;;1999.90;999.90;;;17.00;99.90;;;;;;5004596;28;20051;-67
2023/09/18 04:55:11;;;;;;;1999.90;999.90;;;17.00;99.90;;;;;;4983375;28;20068;-67
2023/09/18 04:57:37;;;;;;;1999.90;999.90;;;17.10;99.90;;;;;;4980326;28;20054;-67
2023/09/18 05:00:08;;;;;;;1999.90;999.90;;;17.10;99.90;;;;;;4956384;28;20049;-67
2023/09/18 05:02:34;;;;;;;1999.90;999.90;;;17.10;99.90;;;;;;4968923;28;20429;-68
2023/09/18 05:05:00;;;;;;;1999.90;999.90;;;17.20;99.90;;;;;;4985538;28;20073;-68
2023/09/18 05:07:26;;;;;;;1999.90;999.90;;;17.20;99.90;;;;;;4983524;28;20119;-67
2023/09/18 05:09:52;;;;;;;1999.90;999.90;;;17.20;99.90;;;;;;4984277;28;20051;-67
2023/09/18 05:12:18;;;;;;;1999.90;999.90;;;17.30;99.90;;;;;;4984519;28;20104;-67
2023/09/18 05:14:44;;;;;;;1999.90;999.90;;;17.30;99.90;;;;;;4982098;28;20054;-67
2023/09/18 05:17:18;;;;;;;1999.90;999.90;;;17.30;99.90;;;;;;5011811;28;20545;-67
2023/09/18 05:19:44;;;;;;;1999.90;999.90;;;17.30;99.90;;;;;;4974051;28;20031;-68
2023/09/18 05:22:10;;;;;;;1999.90;999.90;;;17.30;99.90;;;;;;5003254;28;20038;-68
2023/09/18 05:24:39;;;;;;;1999.90;999.90;;;17.40;99.90;;;;;;4985302;28;20030;-68
2023/09/18 05:27:08;;;;;;;1999.90;999.90;;;17.30;99.90;;;;;;4973747;28;20042;-67
2023/09/18 05:29:36;;;;;;;1999.90;999.90;;;17.40;99.90;;;;;;4981246;28;20034;-68
2023/09/18 05:32:02;;;;;;;1999.90;999.90;;;17.40;99.90;;;;;;4982091;28;20498;-68
2023/09/18 05:34:27;;;;;;;1999.90;999.90;;;17.40;99.90;;;;;;4985887;28;20113;-68
2023/09/18 05:36:53;;;;;;;1999.90;999.90;;;17.50;99.90;;;;;;4976127;28;20154;-67
2023/09/18 05:39:19;;;;;;;1999.90;999.90;;;17.50;99.90;;;;;;4968072;28;20683;-67
2023/09/18 05:41:45;;;;;;;1999.90;999.90;;;17.50;99.90;;;;;;4981172;28;20104;-67
2023/09/18 05:44:10;;;;;;;1999.90;999.90;;;17.50;99.90;;;;;;4974650;28;20055;-68
2023/09/18 05:46:36;;;;;;;1999.90;999.90;;;17.50;99.90;;;;;;4977086;28;20035;-67
2023/09/18 05:49:05;;;;;;;1999.90;999.90;;;17.50;99.90;;;;;;4973944;28;20461;-67
2023/09/18 05:51:32;;;;;;;1999.90;999.90;;;17.60;99.90;;;;;;4978209;28;20050;-67
2023/09/18 05:53:58;;;;;;;1999.90;999.90;;;17.60;99.90;;;;;;4976548;28;20516;-68
2023/09/18 05:56:24;;;;;;;1999.90;999.90;;;17.60;99.90;;;;;;4983320;28;20104;-68
2023/09/18 05:58:49;;;;;;;1999.90;999.90;;;17.70;99.90;;;;;;4989198;28;20042;-67
2023/09/18 06:01:15;;;;;;;1999.90;999.90;;;17.70;99.90;;;;;;5006527;28;20043;-68
2023/09/18 06:03:41;;;;;;;1999.90;999.90;;;17.70;99.90;;;;;;4988824;28;20039;-67
2023/09/18 06:06:08;;;;;;;1999.90;999.90;;;17.80;99.90;;;;;;4982374;28;20046;-67
2023/09/18 06:08:34;;;;;;;1999.90;999.90;;;17.80;99.90;;;;;;4977384;28;20049;-67
2023/09/18 06:10:59;;;;;;;1999.90;999.90;;;17.80;99.90;;;;;;4988482;28;20046;-68
2023/09/18 06:13:25;;;;;;;1999.90;999.90;;;17.90;99.90;;;;;;4981100;28;20042;-67
2023/09/18 06:15:54;;;;;;;1999.90;999.90;;;17.90;99.90;;;;;;4987719;28;20046;-67
2023/09/18 06:18:23;;;;;;;1999.90;999.90;;;17.90;99.90;;;;;;4984965;28;20090;-68
2023/09/18 06:20:49;;;;;;;1999.90;999.90;;;18.00;99.90;;;;;;5017509;28;20096;-67
2023/09/18 06:23:15;;;;;;;1999.90;999.90;;;18.00;99.90;;;;;;4987124;28;20042;-67
2023/09/18 06:25:41;;;;;;;1999.90;999.90;;;18.00;99.90;;;;;;4986184;28;20095;-68
2023/09/18 06:28:06;;;;;;;1999.90;999.90;;;18.00;99.90;;;;;;4967903;28;20054;-67
2023/09/18 06:30:34;;;;;;;1999.90;999.90;;;18.10;99.90;;;;;;4988434;28;20049;-68
2023/09/18 06:33:01;;;;;;;1999.90;999.90;;;18.10;99.90;;;;;;4984872;28;20068;-68
2023/09/18 06:35:26;;;;;;;1999.90;999.90;;;18.20;99.90;;;;;;4984032;28;20146;-67
2023/09/18 06:37:54;;;;;;;1999.90;999.90;;;18.30;99.90;;;;;;4997336;28;20508;-67
2023/09/18 06:40:20;;;;;;;1999.90;999.90;;;18.30;99.90;;;;;;4987966;28;20082;-67
2023/09/18 06:42:46;;;;;;;1999.90;999.90;;;18.30;99.90;;;;;;5012539;28;20042;-67
2023/09/18 06:45:13;;;;;;;1999.90;999.90;;;18.40;99.90;;;;;;4986573;28;20651;-67
2023/09/18 06:47:40;;;;;;;1999.90;999.90;;;18.50;99.90;;;;;;4986799;28;20054;-68
2023/09/18 06:50:06;;;;;;;1999.90;999.90;;;18.50;99.90;;;;;;4986525;28;20489;-67
2023/09/18 06:52:32;;;;;;;1999.90;999.90;;;18.50;99.90;;;;;;4986313;28;20053;-67
2023/09/18 06:54:57;;;;;;;1999.90;999.90;;;18.50;99.90;;;;;;4977735;28;20035;-68
2023/09/18 06:57:24;;;;;;;1999.90;999.90;;;18.60;99.90;;;;;;4987340;28;20049;-67
2023/09/18 06:59:50;;;;;;;1999.90;999.90;;;18.60;99.90;;;;;;4988072;28;20038;-67
2023/09/18 07:02:15;;;;;;;1999.90;999.90;;;18.60;99.90;;;;;;5010997;28;20045;-67
2023/09/18 07:04:45;;;;;;;1999.90;999.90;;;18.60;99.90;;;;;;4980621;28;20041;-67
2023/09/18 07:07:15;;;;;;;1999.90;999.90;;;18.70;99.90;;;;;;4980155;28;20123;-67
2023/09/18 07:09:41;;;;;;;1999.90;999.90;;;18.70;99.90;;;;;;4982598;28;20047;-67
2023/09/18 07:12:09;;;;;;;1999.90;999.90;;;18.70;99.90;;;;;;4981253;28;20046;-67
2023/09/18 07:14:37;;;;;;;1999.90;999.90;;;18.80;99.90;;;;;;4981157;28;20119;-67
2023/09/18 07:17:04;;;;;;;1999.90;999.90;;;18.80;99.90;;;;;;4983613;28;20050;-67
2023/09/18 07:19:29;;;;;;;1999.90;999.90;;;18.80;99.90;;;;;;4969981;28;20046;-67
2023/09/18 07:21:55;;;;;;;1999.90;999.90;;;18.80;99.90;;;;;;4986951;28;20410;-68
2023/09/18 07:24:20;;;;;;;1999.90;999.90;;;18.90;99.90;;;;;;4962951;28;20039;-67
2023/09/18 07:26:48;;;;;;;1999.90;999.90;;;18.90;99.90;;;;;;5004133;28;20472;-67
2023/09/18 07:29:15;;;;;;;1999.90;999.90;;;18.90;99.90;;;;;;4981606;28;20046;-67
2023/09/18 07:31:41;;;;;;;1999.90;999.90;;;18.90;99.90;;;;;;4975688;28;20506;-67
2023/09/18 07:34:07;;;;;;;1999.90;999.90;;;18.80;99.90;;;;;;4977628;28;20076;-68
2023/09/18 07:36:32;;;;;;;1999.90;999.90;;;18.80;99.90;;;;;;5020909;27;20182;-67
2023/09/18 07:38:58;;;;;;;1999.90;999.90;;;18.80;99.90;;;;;;4961654;28;20406;-67
2023/09/18 07:41:25;;;;;;;1999.90;999.90;;;18.80;99.90;;;;;;5005916;27;20063;-67
2023/09/18 07:43:50;;;;;;;1999.90;999.90;;;18.70;99.90;;;;;;4991640;28;20078;-66
2023/09/18 07:46:16;;;;;;;1999.90;999.90;;;18.70;99.90;;;;;;4962313;28;20546;-67
2023/09/18 07:48:42;;;;;;;1999.90;999.90;;;18.60;99.90;;;;;;4977324;28;20038;-67
2023/09/18 07:51:15;;;;;;;1999.90;999.90;;;18.60;99.90;;;;;;4976931;28;20038;-66
2023/09/18 07:53:42;;;;;;;1999.90;999.90;;;18.60;99.90;;;;;;4975778;28;20054;-66
2023/09/18 07:56:07;;;;;;;1999.90;999.90;;;18.60;99.90;;;;;;4976806;28;20073;-66
2023/09/18 07:58:33;;;;;;;1999.90;999.90;;;18.60;99.90;;;;;;5001235;28;20439;-66
2023/09/18 08:00:59;;;;;;;1999.90;999.90;;;18.60;99.90;;;;;;4974660;28;20406;-66
2023/09/18 08:03:26;;;;;;;1999.90;999.90;;;18.60;99.90;;;;;;4969723;28;20046;-67
2023/09/18 08:05:52;;;;;;;1999.90;999.90;;;18.60;99.90;;;;;;4979886;28;20091;-67
2023/09/18 08:08:20;;;;;;;1999.90;999.90;;;18.60;99.90;;;;;;4977186;28;20038;-67
2023/09/18 08:10:49;;;;;;;1999.90;999.90;;;18.60;99.90;;;;;;4977456;28;20053;-67
2023/09/18 08:13:15;;;;;;;1999.90;999.90;;;18.60;99.90;;;;;;4977995;28;20050;-66
2023/09/18 08:15:40;;;;;;;1999.90;999.90;;;18.60;99.90;;;;;;4986406;28;20099;-66
2023/09/18 08:18:06;;;;;;;1999.90;999.90;;;18.60;99.90;;;;;;4982563;28;20046;-67
2023/09/18 08:20:33;;;;;;;1999.90;999.90;;;18.60;99.90;;;;;;4985082;28;20550;-67
2023/09/18 08:23:03;;;;;;;1999.90;999.90;;;18.60;99.90;;;;;;5007309;28;20046;-66
2023/09/18 08:25:28;;;;;;;1999.90;999.90;;;18.60;99.90;;;;;;4979450;28;20043;-67
2023/09/18 08:27:54;;;;;;;1999.90;999.90;;;18.60;99.90;;;;;;4984734;28;20490;-66
2023/09/18 08:30:20;;;;;;;1999.90;999.90;;;18.60;99.90;;;;;;4978519;28;20046;-66
2023/09/18 08:32:46;;;;;;;1999.90;999.90;;;18.60;99.90;;;;;;4976932;28;20115;-66
2023/09/18 08:35:12;;;;;;;1999.90;999.90;;;18.60;99.90;;;;;;4984836;28;20114;-67
2023/09/18 08:37:39;;;;;;;1999.90;999.90;;;18.60;99.90;;;;;;4986752;28;20474;-67
2023/09/18 08:40:09;;;;;;;1999.90;999.90;;;18.60;99.90;;;;;;4986225;28;20097;-67
2023/09/18 08:42:36;;;;;;;1999.90;999.90;;;18.70;99.90;;;;;;4982705;28;20046;-67
2023/09/18 08:45:04;;;;;;;1999.90;999.90;;;18.70;99.90;;;;;;4982853;28;20529;-66
2023/09/18 08:47:31;;;;;;;1999.90;999.90;;;18.80;99.90;;;;;;4983297;28;20053;-67
2023/09/18 08:49:58;;;;;;;1999.90;999.90;;;18.90;99.90;;;;;;4984937;28;20047;-66
2023/09/18 08:52:25;;;;;;;1999.90;999.90;;;19.00;99.90;;;;;;4975739;28;20078;-67
2023/09/18 08:54:52;;;;;;;1999.90;999.90;;;19.10;99.90;;;;;;4985257;28;20034;-66
2023/09/18 08:57:18;;;;;;;1999.90;999.90;;;19.10;99.90;;;;;;4984891;28;20061;-66
2023/09/18 08:59:44;;;;;;;1999.90;999.90;;;19.10;99.90;;;;;;4987793;28;20034;-67
2023/09/18 09:02:11;;;;;;;1999.90;999.90;;;19.10;99.90;;;;;;4968644;28;20111;-67
2023/09/18 09:04:38;;;;;;;1999.90;999.90;;;19.10;99.90;;;;;;4988119;28;20058;-67
2023/09/18 09:07:04;;;;;;;1999.90;999.90;;;19.10;99.90;;;;;;4985805;28;20116;-66
2023/09/18 09:09:30;;;;;;;1999.90;999.90;;;19.10;99.90;;;;;;4983788;28;20352;-66
2023/09/18 09:11:56;;;;;;;1999.90;999.90;;;19.10;99.90;;;;;;4984295;28;20062;-67
2023/09/18 09:14:27;;;;;;;1999.90;999.90;;;19.10;99.90;;;;;;4987507;28;20108;-67
2023/09/18 09:16:54;;;;;;;1999.90;999.90;;;19.10;99.90;;;;;;4988103;28;20121;-67
2023/09/18 09:19:32;;;;;;;1999.90;999.90;;;19.10;99.90;;;;;;4988458;28;20088;-67
2023/09/18 09:22:00;;;;;;;1999.90;999.90;;;19.20;99.90;;;;;;4983644;28;20099;-67
2023/09/18 09:24:40;;;;;;;1999.90;999.90;;;19.20;99.90;;;;;;4988214;28;20054;-66
2023/09/18 09:27:06;;;;;;;1999.90;999.90;;;19.30;99.90;;;;;;4984895;28;20407;-67
2023/09/18 09:29:32;;;;;;;1999.90;999.90;;;19.40;99.90;;;;;;4987329;28;20046;-66
2023/09/18 09:32:18;;;;;;;1999.90;999.90;;;19.40;99.90;;;;;;5018329;28;20046;-67
2023/09/18 09:34:46;;;;;;;1999.90;999.90;;;19.50;99.90;;;;;;4971741;28;20047;-66
2023/09/18 09:37:12;;;;;;;1999.90;999.90;;;19.60;99.90;;;;;;4987002;28;20038;-67
2023/09/18 09:39:51;;;;;;;1999.90;999.90;;;19.70;99.90;;;;;;4982711;28;20058;-67
2023/09/18 09:42:23;;;;;;;1999.90;999.90;;;19.70;99.90;;;;;;4984345;28;20160;-66
2023/09/18 09:45:02;;;;;;;1999.90;999.90;;;19.70;99.90;;;;;;4984365;28;20047;-67
2023/09/18 09:47:31;;;;;;;1999.90;999.90;;;19.70;99.90;;;;;;4988234;28;20398;-67
2023/09/18 09:49:57;;;;;;;1999.90;999.90;;;19.80;99.90;;;;;;4982792;28;20046;-67
2023/09/18 09:52:22;;;;;;;1999.90;999.90;;;19.80;99.90;;;;;;4988523;28;20501;-67
2023/09/18 09:54:48;;;;;;;1999.90;999.90;;;19.80;99.90;;;;;;4978818;28;20039;-67
2023/09/18 09:57:14;;;;;;;1999.90;999.90;;;19.90;99.90;;;;;;4987860;28;20046;-67
2023/09/18 09:59:44;;;;;;;1999.90;999.90;;;20.00;99.90;;;;;;4988879;28;20556;-67
2023/09/18 10:02:14;;;;;;;1999.90;999.90;;;20.10;99.90;;;;;;4978751;28;20124;-67
2023/09/18 10:04:40;;;;;;;1999.90;999.90;;;20.20;99.90;;;;;;4988673;28;20046;-67
2023/09/18 10:07:07;;;;;;;1999.90;999.90;;;20.30;99.90;;;;;;4985260;28;20043;-67
2023/09/18 10:09:38;;;;;;;1999.90;999.90;;;20.40;99.90;;;;;;4972950;28;20470;-67
2023/09/18 10:12:10;;;;;;;1999.90;999.90;;;20.50;99.90;;;;;;4988733;28;20046;-67
2023/09/18 10:14:38;;;;;;;1999.90;999.90;;;20.70;99.90;;;;;;4979241;28;20046;-67
2023/09/18 10:17:18;;;;;;;1999.90;999.90;;;20.90;99.90;;;;;;4971500;28;20050;-67
2023/09/18 10:20:20;;;;;;;1999.90;999.90;;;21.10;99.90;;;;;;4985128;28;20394;-67
2023/09/18 10:22:52;;;;;;;1999.90;999.90;;;21.40;99.90;;;;;;5044952;28;20659;-67
2023/09/18 10:25:22;;;;;;;1999.90;999.90;;;21.60;99.90;;;;;;5045701;28;20559;-67
2023/09/18 10:27:49;;;;;;;1999.90;999.90;;;21.70;99.90;;;;;;5042733;28;20526;-68
2023/09/18 10:30:18;;;;;;;1999.90;999.90;;;21.80;99.90;;;;;;5014227;28;20041;-67
2023/09/18 10:32:48;;;;;;;1999.90;999.90;;;21.70;99.90;;;;;;5043015;28;20132;-67
2023/09/18 10:35:14;;;;;;;1999.90;999.90;;;21.60;99.90;;;;;;5029078;28;20525;-68
2023/09/18 10:37:43;;;;;;;1999.90;999.90;;;21.60;99.90;;;;;;5013594;28;20048;-67
2023/09/18 10:40:09;;;;;;;1999.90;999.90;;;21.60;99.90;;;;;;5005317;28;20143;-67
2023/09/18 10:42:38;;;;;;;1606.30;850.75;;;21.50;99.90;;;;;;5031288;28;20465;-67
2023/09/18 10:45:05;;;;;;;1999.90;999.90;;;21.50;99.90;;;;;;5040466;28;20437;-67
2023/09/18 10:47:32;;;;;;;1600.25;845.17;;;21.50;99.90;;;;;;5036678;28;20044;-67
2023/09/18 10:49:57;;;;;;;376.90;358.70;;;21.70;99.90;;;;;;5041614;28;20441;-67
2023/09/18 10:52:23;;;;;;;512.53;484.85;;;21.80;99.90;;;;;;5020914;28;20049;-67
2023/09/18 10:54:48;;;;;;;491.38;465.08;;;21.80;99.90;;;;;;5037679;28;20444;-68
2023/09/18 10:57:14;;;;;;;424.42;401.52;;;22.00;99.90;;;;;;5009021;28;20481;-68
2023/09/18 10:59:45;;;;;;;498.08;470.33;;;22.30;99.90;;;;;;4981346;28;20471;-67
2023/09/18 11:02:14;;;;;;;425.40;403.50;;;22.40;99.90;;;;;;4981833;28;20133;-67
2023/09/18 11:04:42;;;;;;;474.33;447.65;;;22.30;99.90;;;;;;4960807;28;20050;-67
2023/09/18 11:07:08;;;;;;;515.33;486.15;;;22.30;99.90;;;;;;5023006;28;20040;-67
2023/09/18 11:09:44;;;;;;;400.88;379.20;;;22.10;99.90;;;;;;4958157;28;20126;-68
2023/09/18 11:12:11;;;;;;;443.02;419.48;;;21.90;99.90;;;;;;4968393;28;20050;-67
2023/09/18 11:14:57;;;;;;;434.52;411.83;;;21.70;99.90;;;;;;5010452;28;20042;-67
2023/09/18 11:17:29;;;;;;;471.90;447.30;;;21.60;99.90;;;;;;4976855;28;20236;-67
2023/09/18 11:20:09;;;;;;;342.73;326.02;;;21.70;99.90;;;;;;5049368;27;20399;-67
2023/09/18 11:22:36;;;;;;;295.48;281.20;;;22.10;99.90;;;;;;4993518;28;20163;-67
2023/09/18 11:25:43;;;;;;;267.67;254.73;;;22.40;99.90;;;;;;4995419;28;20050;-67
2023/09/18 11:28:17;;;;;;;177.20;168.75;;;22.70;99.90;;;;;;5000611;28;20057;-68
2023/09/18 11:30:58;;;;;;;157.38;150.25;;;22.90;99.90;;;;;;4971357;28;20047;-67
2023/09/18 11:33:32;;;;;;;132.05;126.00;;;23.10;99.90;;;;;;5030468;28;20042;-67
2023/09/18 11:36:05;;;;;;;240.15;227.63;;;23.20;99.90;;;;;;5011011;28;20058;-67
2023/09/18 11:38:33;;;;;;;141.20;134.68;;;23.40;99.90;;;;;;4996004;28;20073;-67
2023/09/18 11:41:01;;;;;;;173.07;164.98;;;23.40;99.90;;;;;;4970813;28;20059;-67
2023/09/18 11:43:33;;;;;;;163.63;155.57;;;23.50;99.90;;;;;;4971369;28;20047;-67
2023/09/18 11:46:03;;;;;;;150.70;142.95;;;23.60;99.90;;;;;;4986590;28;20490;-67
2023/09/18 11:48:29;;;;;;;148.90;141.52;;;23.60;99.90;;;;;;4983643;28;20038;-67
2023/09/18 11:50:59;;;;;;;367.40;348.90;;;23.60;99.90;;;;;;4971937;28;20039;-67
2023/09/18 11:53:27;;;;;;;366.58;347.85;;;23.60;99.90;;;;;;4980391;28;20134;-67
2023/09/18 11:55:53;;;;;;;262.83;250.35;;;23.30;99.90;;;;;;5005622;28;20066;-67
2023/09/18 11:58:22;;;;;;;378.67;359.33;;;23.10;99.90;;;;;;5021441;28;20530;-67
2023/09/18 12:00:49;;;;;;;376.73;356.55;;;22.80;99.90;;;;;;4981242;28;20053;-67
2023/09/18 12:03:25;;;;;;;305.33;289.83;;;22.70;99.90;;;;;;4978825;28;20103;-67